Tiempo atmosférico en la estación meteorológica de Andorra, Teruel (762 m.)



Fecha
DESCASC
Temp. máxima en grados centígrados (hora)
DESCASC
Temp. mínima en grados centígrados (hora)
DESCASC
Temp. media en grados centígrados
DESCASC
Racha de viento máxima en m/sg (hora)
DESCASC
Velocidad máxima media en intervalos de 10 minutos(hora)
DESCASC
Precipitaciones diarias en mm
DESCASC
Precipitaciones de 00:00 a 06:00 en mm
DESCASC
Precipitaciones de 06:00 a 12:00 en mm
DESCASC
Precipitaciones de 12:00 a 18:00 en mm
DESCASC
Precipitaciones de 18:00 a 24:00 en mm
DESCASC
09-12-2018 15.3 (14:10) 7.2 (21:50) 11.3 22.78 (23:30) 17.22 (23:59) 0 0 0 0 0
07-12-2018 15.1 (15:30) 3.8 (07:20) 9.5 12.5 (17:10) 10.28 (19:50) 0 0 0 0 0
06-12-2018 14.1 (13:20) 7.9 (00:00) 11 12.22 (13:50) 10 (13:50) 0 0 0 0 0
05-12-2018 17.6 (11:50) 10.4 (00:00) 14 11.67 (21:30) 9.44 (21:30) 0 0 0 0 0
04-12-2018 17.2 (13:10) 9.1 (08:40) 13.2 9.44 (04:20) 8.06 (04:40) 0 0 0 0 0
03-12-2018 17.6 (14:20) 8.6 (00:00) 13.1 15.83 (03:10) 12.78 (03:10) 0 0 0 0 0
02-12-2018 15.6 (17:00) 7.1 (00:00) 11.4 11.39 (07:20) 9.17 (07:40) 0 0 0 0 0
01-12-2018 10.7 (12:50) 3.4 (00:00) 7 13.33 (14:50) 10.28 (12:30) 0 0 0 0 0
30-11-2018 10.2 (14:50) 4.4 (00:00) 7.3 16.67 (11:00) 13.33 (15:20) 1 1 0 0 0
29-11-2018 12 (16:20) 5.7 (00:00) 8.8 7.22 (23:59) 6.39 (23:59) 0 0 0 0 0
28-11-2018 16.2 (14:30) 6.4 (00:00) 11.3 12.5 (02:30) 10.83 (02:40) 0 0 0 0 0
27-11-2018 12.8 (14:50) 4.3 (00:00) 8.6 19.72 (00:20) 13.61 (11:10) 0 0 0 0 0
25-11-2018 11.6 (11:10) 4.8 (00:00) 8.2 16.11 (11:10) 12.5 (09:40) 1 0.4 0.2 0.2 0.2
24-11-2018 12 (14:50) 3.3 (00:00) 7.6 12.22 (02:50) 9.72 (03:00) 0 0 0 0 0
23-11-2018 9.8 (16:00) 4.7 (00:00) 7.3 10.56 (13:10) 8.61 (13:10) 1.8 1.8 0 0 0
22-11-2018 10.9 (12:10) 4.8 (00:00) 7.8 6.39 (04:30) 5.56 (04:40) 0 0 0 0 0
21-11-2018 13.3 (14:30) 6 (00:00) 9.7 14.72 (11:30) 11.94 (11:30) 0 0 0 0 0
20-11-2018 13.7 (14:10) 6.2 (00:00) 9.9 17.78 (15:40) 10.83 (15:50) 2.6 0.2 0.2 2.2 0
19-11-2018 8.2 (16:50) 6.6 (00:00) 7.4 7.22 (05:30) 5.56 (22:30) 3 2.6 0.4 0 0
18-11-2018 10.1 (00:00) 7.3 (00:00) 8.7 10.28 (13:40) 8.61 (13:40) 4.4 1.8 2 0.2 0.4
17-11-2018 12.8 (15:10) 9.3 (00:00) 11.1 6.67 (15:30) 5 (15:30) 0.8 0.2 0 0 0.6
16-11-2018 13.4 (15:10) 10 (00:00) 11.7 6.67 (15:10) 5 (15:10) 0 0 0 0 0
15-11-2018 12.1 (14:50) 10.5 (00:00) 11.3 5.83 (16:00) 4.72 (16:00) 1.2 0 1.2 0 0
14-11-2018 13.8 (16:10) 10.2 (00:00) 12 7.22 (15:10) 6.11 (15:20) 0 0 0 0 0
13-11-2018 12.6 (16:20) 8.8 (00:00) 10.7 7.22 (07:20) 5 (03:30) 0 0 0 0 0
12-11-2018 16.2 (13:20) 9.1 (00:00) 12.7 11.11 (12:00) 7.22 (15:20) 0 0 0 0 0

Gráficas

Temp. máximas Temp. mínimas Temp. medias Precipitaciones Rachas de viento máximas Velocidades máximas media en intervalos de 10 minutos

Datos horarios

Fecha y hora oficial Temperatura (ºC) Velocidad del viento (km/h) Dirección del viento Racha (km/h) Dirección de racha Precipitación (mm) Presión (hPa) Tendencia (hPa) Humedad (%)
2018-12-11 23:00:00 8.7 29 Oeste 34 Oeste 0 -- -- 48
2018-12-11 22:00:00 9.4 26 Oeste 31 Oeste 0 -- -- 50
2018-12-11 21:00:00 9.5 26 Oeste 29 Oeste 0 -- -- 53
2018-12-11 20:00:00 9.2 24 Oeste 27 Oeste 0 -- -- 59
2018-12-11 19:00:00 9.3 23 Oeste 28 Oeste 0 -- -- 62
2018-12-11 18:00:00 10.3 14 Oeste 20 Oeste 0 -- -- 64
2018-12-11 17:00:00 10.7 5 Este 9 Sudoeste 0 -- -- 65
2018-12-11 16:00:00 10.9 6 Sur 8 Sur 0 -- -- 65
2018-12-11 15:00:00 10.1 4 Este 11 Este 0 -- -- 64
2018-12-11 14:00:00 9.5 9 Este 13 Este 0 -- -- 68
2018-12-11 13:00:00 9.5 9 Este 12 Este 0 -- -- 66
2018-12-11 12:00:00 10.9 5 Este 13 Oeste 0 -- -- 55
2018-12-11 11:00:00 8.8 9 Oeste 21 Oeste 0 -- -- 50
2018-12-11 10:00:00 6.8 13 Oeste 21 Oeste 0 -- -- 52
2018-12-11 09:00:00 6 15 Oeste 21 Oeste 0 -- -- 51
2018-12-11 08:00:00 5.1 18 Oeste 21 Sudoeste 0 -- -- 59
2018-12-11 07:00:00 5.5 10 Sudoeste 13 Sudoeste 0 -- -- 59
2018-12-11 06:00:00 5.8 9 Sudoeste 13 Sur 0 -- -- 61
2018-12-11 05:00:00 5.9 7 Sur 9 Sudeste 0 -- -- 65
2018-12-11 04:00:00 7.1 4 Este 8 Este 0 -- -- 66
2018-12-11 03:00:00 7.3 6 Este 8 Este 0 -- -- 65
2018-12-11 02:00:00 6.9 8 Sur 11 Sur 0 -- -- 67
2018-12-11 01:00:00 7.4 7 Este 9 Nordeste 0 -- -- 68
2018-12-11 00:00:00 8.1 4 Nordeste 12 Sudoeste 0 -- -- 63
2018-12-10 23:00:00 7.7 9 Sur 10 Sudoeste 0 -- -- 68
2018-12-10 22:00:00 8.5 4 Este 9 Este 0 -- -- 65
2018-12-10 21:00:00 8.8 5 Oeste 8 Oeste 0 -- -- 67
2018-12-10 20:00:00 8.6 5 Sudoeste 12 Sur 0 -- -- 68
2018-12-10 19:00:00 9.2 4 Sudoeste 9 Sur 0 -- -- 63
2018-12-10 18:00:00 9.7 4 Noroeste 14 Oeste 0 -- -- 62
2018-12-10 17:00:00 10.3 5 Nordeste 18 Noroeste 0 -- -- 63
2018-12-10 16:00:00 12.6 14 Noroeste 21 Noroeste 0 -- -- 52
2018-12-10 15:00:00 12.6 13 Noroeste 28 Noroeste 0 -- -- 51
2018-12-10 14:00:00 12 22 Noroeste 33 Noroeste 0 -- -- 54
2018-12-10 13:00:00 11.5 24 Oeste 33 Oeste 0 -- -- 53
2018-12-10 12:00:00 9.8 18 Oeste 39 Oeste 0 -- -- 63
2018-12-10 11:00:00 8.3 30 Oeste 37 Oeste 0 -- -- 69
2018-12-10 10:00:00 7 17 Oeste 47 Oeste 0 -- -- 75
2018-12-10 09:00:00 5.9 33 Oeste 41 Oeste 0 -- -- 79
2018-12-10 08:00:00 5.7 29 Oeste 38 Oeste 0 -- -- 79
2018-12-10 07:00:00 5.6 24 Oeste 37 Oeste 0 -- -- 81
2018-12-10 06:00:00 5.8 37 Oeste 45 Oeste 0 -- -- 80
2018-12-10 05:00:00 5.9 24 Oeste 36 Oeste 0 -- -- 79
2018-12-10 04:00:00 6.5 18 Oeste 28 Sudoeste 0 -- -- 76
2018-12-10 03:00:00 6.7 10 Sudoeste 49 Oeste 0 -- -- 76
2018-12-10 02:00:00 6.7 48 Oeste 60 Oeste 0 -- -- 77
2018-12-10 01:00:00 6.6 48 Oeste 77 Oeste 0 -- -- 78
2018-12-10 00:00:00 7.5 62 Oeste 82 Noroeste 0 -- -- 75
2018-12-09 23:00:00 7.4 52 Noroeste 70 Oeste 0 -- -- 77
2018-12-09 22:00:00 7.2 50 Oeste 67 Oeste 0 -- -- 79
2018-12-09 21:00:00 8 41 Oeste 56 Oeste 0 -- -- 77
2018-12-09 20:00:00 8.7 32 Oeste 42 Oeste 0 -- -- 76
2018-12-09 19:00:00 9.3 27 Oeste 44 Noroeste 0 -- -- 73
2018-12-09 18:00:00 10.4 28 Noroeste 41 Noroeste 0 -- -- 68
2018-12-09 17:00:00 11.5 28 Noroeste 46 Noroeste 0 -- -- 67
2018-12-09 16:00:00 13.2 33 Noroeste 48 Oeste 0 -- -- 63
2018-12-09 15:00:00 14.3 27 Noroeste 53 Oeste 0 -- -- 58
2018-12-09 14:00:00 15 31 Noroeste 49 Noroeste 0 -- -- 46
2018-12-09 13:00:00 13.3 38 Oeste 51 Oeste 0 -- -- 58
2018-12-09 12:00:00 11.8 42 Oeste 49 Oeste 0 -- -- 64
2018-12-09 11:00:00 10.9 36 Oeste 46 Oeste 0 -- -- 64
2018-12-09 10:00:00 8.9 35 Oeste 41 Oeste 0 -- -- 67
2018-12-09 09:00:00 7.7 27 Oeste 34 Oeste 0 -- -- 67
2018-12-09 08:00:00 7.6 27 Oeste 36 Oeste 0 -- -- 59
2018-12-09 07:00:00 8.9 28 Oeste 37 Oeste 0 -- -- 55
2018-12-09 06:00:00 8.5 31 Oeste 38 Oeste 0 -- -- 59
2018-12-09 05:00:00 8.6 33 Oeste 39 Oeste 0 -- -- 61
2018-12-09 04:00:00 8.4 27 Oeste 42 Oeste 0 -- -- 61
2018-12-09 03:00:00 8.9 36 Oeste 44 Oeste 0 -- -- 60
2018-12-09 02:00:00 7.5 32 Oeste 37 Oeste 0 -- -- 71
2018-12-09 01:00:00 8.1 31 Oeste 35 Oeste 0 -- -- 70
2018-12-09 00:00:00 8.2 25 Oeste 29 Oeste 0 -- -- 70
2018-12-08 23:00:00 8.4 25 Oeste 33 Oeste 0 -- -- 68
2018-12-08 22:00:00 8.3 28 Oeste 32 Oeste 0 -- -- 69
2018-12-08 21:00:00 8.6 21 Oeste 28 Oeste 0 -- -- 67
2018-12-08 20:00:00 8.6 21 Oeste 29 Oeste 0 -- -- 67
2018-12-08 19:00:00 9 23 Oeste 35 Oeste 0 -- -- 67
2018-12-08 18:00:00 10.1 21 Oeste 31 Oeste 0 -- -- 63
2018-12-08 17:00:00 11.7 17 Oeste 30 Oeste 0 -- -- 59
2018-12-08 16:00:00 12.3 24 Oeste 38 Oeste 0 -- -- 57
2018-12-08 15:00:00 11.9 25 Oeste 37 Oeste 0 -- -- 60
2018-12-08 14:00:00 10.9 32 Oeste 44 Oeste 0 -- -- 62
2018-12-08 13:00:00 9.7 35 Oeste 45 Oeste 0 -- -- 66
2018-12-08 12:00:00 8.6 33 Oeste 41 Oeste 0 -- -- 68
2018-12-08 11:00:00 8 28 Oeste 37 Oeste 0 -- -- 75
2018-12-08 10:00:00 7.2 23 Oeste 29 Oeste 0 -- -- 79
2018-12-08 09:00:00 6.9 18 Oeste 44 Oeste 0 -- -- 81
2018-12-08 08:00:00 7.4 33 Oeste 50 Noroeste 0 -- -- 76
2018-12-08 07:00:00 7.6 26 Noroeste 36 Noroeste 0 -- -- 82
2018-12-08 06:00:00 7.6 18 Oeste 41 Noroeste 0 -- -- 85
2018-12-08 05:00:00 7.9 31 Noroeste 45 Oeste 0 -- -- 85
2018-12-08 04:00:00 8.1 28 Oeste 44 Noroeste 0 -- -- 86
2018-12-08 03:00:00 8.5 32 Noroeste 48 Noroeste 0 -- -- 83
2018-12-08 02:00:00 9.1 33 Noroeste 51 Oeste 0 -- -- 80
2018-12-08 01:00:00 9.6 31 Noroeste 45 Noroeste 0 -- -- 78
2018-12-08 00:00:00 9.6 22 Oeste 36 Noroeste 0 -- -- 76
2018-12-07 23:00:00 8.9 20 Oeste 28 Oeste 0 -- -- 78
2018-12-07 22:00:00 8.4 25 Oeste 31 Oeste 0 -- -- 79
2018-12-07 21:00:00 9 25 Oeste 36 Noroeste 0 -- -- 75
2018-12-07 20:00:00 9.5 32 Noroeste 44 Noroeste 0 -- -- 73
2018-12-07 19:00:00 11.4 26 Noroeste 30 Noroeste 0 -- -- 64
2018-12-07 18:00:00 11.9 23 Noroeste 45 Noroeste 0 -- -- 61
2018-12-07 17:00:00 14.5 30 Noroeste 43 Oeste 0 -- -- 51
2018-12-07 16:00:00 14.9 26 Oeste 32 Oeste 0 -- -- 49
2018-12-07 15:00:00 15 22 Oeste 36 Oeste 0 -- -- 45
2018-12-07 14:00:00 13.9 26 Oeste 33 Oeste 0 -- -- 52
2018-12-07 13:00:00 12.2 28 Oeste 38 Oeste 0 -- -- 56
2018-12-07 12:00:00 10.1 28 Oeste 38 Oeste 0 -- -- 62
2018-12-07 11:00:00 8.8 16 Oeste 23 Oeste 0 -- -- 68
2018-12-07 10:00:00 6.5 21 Oeste 26 Sudoeste 0 -- -- 74
2018-12-07 09:00:00 5 14 Oeste 24 Sudoeste 0 -- -- 81
2018-12-07 08:00:00 4.2 22 Oeste 28 Oeste 0 -- -- 86
2018-12-07 07:00:00 4.2 19 Oeste 23 Oeste 0 -- -- 89
2018-12-07 06:00:00 4.1 17 Oeste 22 Oeste 0 -- -- 91
2018-12-07 05:00:00 5.2 18 Oeste 24 Oeste 0 -- -- 89
2018-12-07 04:00:00 6.6 15 Oeste 21 Oeste 0 -- -- 89
2018-12-07 03:00:00 7.6 19 Oeste 24 Oeste 0 -- -- 86
2018-12-07 02:00:00 8.1 17 Oeste 21 Oeste 0 -- -- 87
2018-12-07 01:00:00 8.4 7 Sudoeste 16 Oeste 0 -- -- 86
2018-12-07 00:00:00 8.4 14 Oeste 25 Oeste 0 -- -- 86
2018-12-06 23:00:00 8.3 18 Oeste 33 Oeste 0 -- -- 87
2018-12-06 22:00:00 8.3 19 Oeste 26 Oeste 0 -- -- 88
2018-12-06 21:00:00 7.9 21 Oeste 26 Oeste 0 -- -- 89
2018-12-06 20:00:00 8.7 17 Oeste 31 Noroeste 0 -- -- 87
2018-12-06 19:00:00 9.9 27 Noroeste 41 Noroeste 0 -- -- 81
2018-12-06 18:00:00 10.6 22 Noroeste 33 Oeste 0 -- -- 81
2018-12-06 17:00:00 12.9 27 Oeste 33 Oeste 0 -- -- 69
2018-12-06 16:00:00 14 22 Oeste 42 Oeste 0 -- -- 65
2018-12-06 15:00:00 13.9 32 Oeste 42 Oeste 0 -- -- 66
2018-12-06 14:00:00 13.6 32 Oeste 44 Oeste 0 -- -- 67
2018-12-06 13:00:00 13.7 15 Noroeste 32 Oeste 0 -- -- 69
2018-12-06 12:00:00 13.1 27 Oeste 35 Oeste 0 -- -- 71
2018-12-06 11:00:00 11.5 25 Oeste 31 Oeste 0 -- -- 76
2018-12-06 10:00:00 9.9 23 Oeste 28 Oeste 0 -- -- 82
2018-12-06 09:00:00 8.7 17 Oeste 28 Oeste 0 -- -- 85
2018-12-06 08:00:00 8.1 24 Oeste 38 Oeste 0 -- -- 87
2018-12-06 07:00:00 8.5 30 Oeste 35 Oeste 0 -- -- 84
2018-12-06 06:00:00 8.8 26 Oeste 32 Oeste 0 -- -- 81
2018-12-06 05:00:00 8.8 23 Oeste 36 Oeste 0 -- -- 79
2018-12-06 04:00:00 9.9 28 Oeste 35 Oeste 0 -- -- 74
2018-12-06 03:00:00 9.8 30 Oeste 35 Oeste 0 -- -- 74
2018-12-06 02:00:00 9.7 29 Oeste 33 Oeste 0 -- -- 75
2018-12-06 01:00:00 9.6 30 Oeste 32 Oeste 0 -- -- 75
2018-12-06 00:00:00 10.6 23 Oeste 32 Oeste 0 -- -- 72
2018-12-05 23:00:00 12 20 Oeste 35 Oeste 0 -- -- 66
2018-12-05 22:00:00 13.2 32 Oeste 42 Oeste 0 -- -- 62
2018-12-05 21:00:00 12.7 27 Oeste 35 Sudoeste 0 -- -- 66
2018-12-05 20:00:00 14.1 17 Oeste 22 Noroeste 0 -- -- 66
2018-12-05 19:00:00 15.2 19 Noroeste 23 Noroeste 0 -- -- 61
2018-12-05 18:00:00 14.4 15 Sudoeste 21 Sudoeste 0 -- -- 73
2018-12-05 17:00:00 16.3 10 Sur 15 Sur 0 -- -- 69
2018-12-05 16:00:00 15 8 Este 12 Nordeste 0 -- -- 64
2018-12-05 15:00:00 15.2 6 Este 13 Este 0 -- -- 67
2018-12-05 14:00:00 15.1 12 Este 15 Este 0 -- -- 69
2018-12-05 13:00:00 16 3 Sudeste 13 Nordeste 0 -- -- 69
2018-12-05 12:00:00 17.5 3 Este 8 Sudoeste 0 -- -- 61
2018-12-05 11:00:00 15.3 8 Oeste 20 Sudoeste 0 -- -- 56
2018-12-05 10:00:00 12.9 14 Oeste 21 Oeste 0 -- -- 61
2018-12-05 09:00:00 11 17 Oeste 22 Oeste 0 -- -- 67
2018-12-05 08:00:00 10.7 17 Oeste 20 Oeste 0 -- -- 69
2018-12-05 07:00:00 11 15 Oeste 17 Oeste 0 -- -- 68
2018-12-05 06:00:00 12.1 14 Sudoeste 17 Oeste 0 -- -- 67
2018-12-05 05:00:00 11.5 12 Sudoeste 14 Sudoeste 0 -- -- 75
2018-12-05 04:00:00 12.3 11 Oeste 14 Oeste 0 -- -- 71
2018-12-05 03:00:00 11.7 13 Oeste 18 Oeste 0 -- -- 77
2018-12-05 02:00:00 11.7 17 Oeste 20 Oeste 0 -- -- 81
2018-12-05 01:00:00 11.6 16 Oeste 17 Oeste 0 -- -- 86
2018-12-05 00:00:00 11.5 10 Oeste 15 Oeste 0 -- -- 88
2018-12-04 23:00:00 12.1 13 Oeste 16 Oeste 0 -- -- 87
2018-12-04 22:00:00 12.9 7 Sudoeste 13 Sur 0 -- -- 81
2018-12-04 21:00:00 13.2 12 Sur 15 Sur 0 -- -- 81
2018-12-04 20:00:00 12.7 12 Sur 14 Sur 0 -- -- 84
2018-12-04 19:00:00 12.8 8 Sudoeste 10 Sudoeste 0 -- -- 84
2018-12-04 18:00:00 13.4 6 Sur 12 Este 0 -- -- 81
2018-12-04 17:00:00 14.1 7 Este 14 Este 0 -- -- 78
2018-12-04 16:00:00 14.4 12 Nordeste 19 Este 0 -- -- 77
2018-12-04 15:00:00 15.4 14 Nordeste 19 Nordeste 0 -- -- 74
2018-12-04 14:00:00 16 12 Nordeste 17 Este 0 -- -- 72
2018-12-04 13:00:00 16.9 4 Norte 10 Oeste 0 -- -- 66
2018-12-04 12:00:00 14.7 10 Oeste 15 Oeste 0 -- -- 74
2018-12-04 11:00:00 12.8 13 Oeste 17 Oeste 0 -- -- 80
2018-12-04 10:00:00 10.9 14 Oeste 20 Oeste 0 -- -- 84
2018-12-04 09:00:00 9.5 17 Oeste 27 Oeste 0 -- -- 90
2018-12-04 08:00:00 9.7 22 Oeste 29 Sudoeste 0 -- -- 89
2018-12-04 07:00:00 9.9 15 Sudoeste 30 Oeste 0 -- -- 88
2018-12-04 06:00:00 9.5 26 Oeste 33 Oeste 0 -- -- 90
2018-12-04 05:00:00 9.9 26 Oeste 34 Oeste 0 -- -- 88
2018-12-04 04:00:00 10.1 25 Oeste 32 Oeste 0 -- -- 88
2018-12-04 03:00:00 10.2 21 Oeste 27 Oeste 0 -- -- 87
2018-12-04 02:00:00 9.9 21 Oeste 25 Oeste 0 -- -- 88
2018-12-04 01:00:00 10 19 Oeste 27 Oeste 0 -- -- 87
2018-12-04 00:00:00 10.5 24 Oeste 28 Oeste 0 -- -- 85
2018-12-03 23:00:00 11 26 Oeste 35 Oeste 0 -- -- 84
2018-12-03 22:00:00 11.9 27 Oeste 36 Oeste 0 -- -- 81
2018-12-03 21:00:00 12.5 31 Oeste 37 Oeste 0 -- -- 78
2018-12-03 20:00:00 12.5 26 Oeste 38 Oeste 0 -- -- 78
2018-12-03 19:00:00 12.2 29 Oeste 35 Oeste 0 -- -- 78
2018-12-03 18:00:00 13.5 30 Oeste 49 Oeste 0 -- -- 72
2018-12-03 17:00:00 14.7 35 Oeste 52 Oeste 0 -- -- 66
2018-12-03 16:00:00 15.5 18 Noroeste 28 Noroeste 0 -- -- 66
2018-12-03 15:00:00 16.1 9 Norte 25 Noroeste 0 -- -- 64
2018-12-03 14:00:00 17.3 18 Oeste 30 Oeste 0 -- -- 58
2018-12-03 13:00:00 16.1 21 Oeste 29 Oeste 0 -- -- 59
2018-12-03 12:00:00 13.6 20 Oeste 28 Oeste 0 -- -- 66
2018-12-03 11:00:00 12.2 17 Sudoeste 28 Sudoeste 0 -- -- 68
2018-12-03 10:00:00 10.5 21 Sudoeste 29 Oeste 0 -- -- 71
2018-12-03 09:00:00 9.5 21 Oeste 29 Oeste 0 -- -- 72
2018-12-03 08:00:00 8.9 25 Oeste 31 Sudoeste 0 -- -- 74
2018-12-03 07:00:00 8.8 24 Sudoeste 29 Sudoeste 0 -- -- 73
2018-12-03 06:00:00 9 25 Sudoeste 41 Sudoeste 0 -- -- 73
2018-12-03 05:00:00 9.1 33 Sudoeste 43 Sudoeste 0 -- -- 72
2018-12-03 04:00:00 9.4 27 Sudoeste 57 Oeste 0 -- -- 71
2018-12-03 03:00:00 9.4 39 Oeste 52 Oeste 0 -- -- 72
2018-12-03 02:00:00 9.3 6 Nordeste 37 Oeste 0 -- -- 71
2018-12-03 01:00:00 9 21 Oeste 31 Oeste 0 -- -- 73
2018-12-03 00:00:00 9.8 10 Oeste 17 Oeste 0 -- -- 67
2018-12-02 23:00:00 9.8 15 Oeste 26 Oeste 0 -- -- 68
2018-12-02 22:00:00 11.4 23 Oeste 29 Oeste 0 -- -- 61
2018-12-02 21:00:00 12.3 21 Oeste 23 Oeste 0 -- -- 60
2018-12-02 20:00:00 12.1 12 Sudoeste 14 Oeste 0 -- -- 62
2018-12-02 19:00:00 12.7 9 Oeste 15 Oeste 0 -- -- 59
2018-12-02 18:00:00 13.8 4 Norte 13 Oeste 0 -- -- 54
2018-12-02 17:00:00 15.6 4 Oeste 10 Oeste 0 -- -- 49
2018-12-02 16:00:00 13.9 3 Sudeste 9 Nordeste 0 -- -- 58
2018-12-02 15:00:00 14.5 3 Nordeste 14 Norte 0 -- -- 56
2018-12-02 14:00:00 15 6 Norte 18 Oeste 0 -- -- 57
2018-12-02 13:00:00 14.8 17 Oeste 29 Oeste 0 -- -- 49
2018-12-02 12:00:00 13.4 14 Oeste 33 Oeste 0 -- -- 56
2018-12-02 11:00:00 11.8 28 Oeste 39 Oeste 0 -- -- 60
2018-12-02 10:00:00 10.5 31 Oeste 40 Sudoeste 0 -- -- 63
2018-12-02 09:00:00 8.4 30 Sudoeste 37 Sudoeste 0 -- -- 69
2018-12-02 08:00:00 7.5 25 Sudoeste 41 Sudoeste 0 -- -- 73
2018-12-02 07:00:00 7.5 29 Sudoeste 39 Oeste 0 -- -- 71
2018-12-02 06:00:00 7.8 25 Oeste 39 Oeste 0 -- -- 71
2018-12-02 05:00:00 7.2 21 Sudoeste 30 Sudoeste 0 -- -- 72
2018-12-02 04:00:00 7.6 12 Sudoeste 22 Sudoeste 0 -- -- 70
2018-12-02 03:00:00 7.7 9 Oeste 27 Sudoeste 0 -- -- 73
2018-12-02 02:00:00 7.5 22 Sudoeste 38 Sudoeste 0 -- -- 74
2018-12-02 01:00:00 8.4 31 Oeste 39 Oeste 0 -- -- 70
2018-12-02 00:00:00 8.5 27 Oeste 42 Oeste 0 -- -- 68
2018-12-01 23:00:00 8.5 26 Oeste 35 Oeste 0 -- -- 67
2018-12-01 22:00:00 8.2 23 Oeste 39 Oeste 0 -- -- 67
2018-12-01 21:00:00 8.5 33 Oeste 39 Oeste 0 -- -- 65
2018-12-01 20:00:00 7.8 23 Oeste 28 Oeste 0 -- -- 68
2018-12-01 19:00:00 8 23 Oeste 31 Oeste 0 -- -- 70
2018-12-01 18:00:00 8.8 24 Oeste 32 Oeste 0 -- -- 69
2018-12-01 17:00:00 9.8 29 Oeste 36 Oeste 0 -- -- 64
2018-12-01 16:00:00 10 29 Oeste 39 Oeste 0 -- -- 66
2018-12-01 15:00:00 10.4 32 Oeste 48 Oeste 0 -- -- 64
2018-12-01 14:00:00 10.5 28 Oeste 41 Oeste 0 -- -- 62
2018-12-01 13:00:00 10.5 31 Oeste 47 Oeste 0 -- -- 65
2018-12-01 12:00:00 10 26 Oeste 37 Oeste 0 -- -- 65
2018-12-01 11:00:00 8.2 18 Oeste 31 Oeste 0 -- -- 68
2018-12-01 10:00:00 5.6 4 Sudoeste 19 Oeste 0 -- -- 79
2018-12-01 09:00:00 5.1 14 Oeste 32 Oeste 0 -- -- 81
2018-12-01 08:00:00 5 22 Oeste 29 Oeste 0 -- -- 80
2018-12-01 07:00:00 4.7 26 Oeste 33 Sudoeste 0 -- -- 80
2018-12-01 06:00:00 4.1 27 Oeste 34 Sudoeste 0 -- -- 80
2018-12-01 05:00:00 3.5 23 Oeste 28 Oeste 0 -- -- 81
2018-12-01 04:00:00 3.7 26 Oeste 29 Oeste 0 -- -- 78
2018-12-01 03:00:00 4.4 23 Oeste 35 Oeste 0 -- -- 76
2018-12-01 02:00:00 4.3 27 Oeste 36 Oeste 0 -- -- 78
2018-12-01 01:00:00 4.2 27 Oeste 36 Oeste 0 -- -- 79
2018-12-01 00:00:00 4.4 31 Oeste 37 Oeste 0 -- -- 79
2018-11-30 23:00:00 5.3 31 Oeste 37 Oeste 0 -- -- 76
2018-11-30 22:00:00 5.8 25 Oeste 41 Oeste 0 -- -- 75
2018-11-30 21:00:00 6 31 Oeste 39 Oeste 0 -- -- 74
2018-11-30 20:00:00 6.1 27 Oeste 50 Oeste 0 -- -- 75
2018-11-30 19:00:00 7.2 38 Oeste 58 Noroeste 0 -- -- 68
2018-11-30 18:00:00 8.1 46 Noroeste 58 Noroeste 0 -- -- 63
2018-11-30 17:00:00 9.1 42 Noroeste 56 Noroeste 0 -- -- 60
2018-11-30 16:00:00 9.8 41 Noroeste 60 Noroeste 0 -- -- 65
2018-11-30 15:00:00 10.2 40 Oeste 54 Oeste 0 -- -- 61
2018-11-30 14:00:00 9.4 40 Noroeste 58 Noroeste 0 -- -- 65
2018-11-30 13:00:00 9.7 39 Noroeste 60 Noroeste 0 -- -- 70
2018-11-30 12:00:00 8.9 36 Noroeste 57 Oeste 0 -- -- 74
2018-11-30 11:00:00 8.7 41 Oeste 60 Oeste 0 -- -- 79
2018-11-30 10:00:00 7.2 32 Oeste 50 Oeste 0 -- -- 86
2018-11-30 09:00:00 6.6 35 Oeste 42 Oeste 0 -- -- 86
2018-11-30 08:00:00 6.4 24 Oeste 33 Oeste 0 -- -- 84
2018-11-30 07:00:00 5.8 21 Oeste 29 Oeste 0 -- -- 87
2018-11-30 06:00:00 6.2 19 Oeste 24 Oeste 0 -- -- 82
2018-11-30 05:00:00 6.2 15 Sudoeste 18 Oeste 0 -- -- 79
2018-11-30 04:00:00 6.2 14 Oeste 20 Oeste 0.4 -- -- 80
2018-11-30 03:00:00 6.5 14 Oeste 33 Oeste 0.6 -- -- 79
2018-11-30 02:00:00 8.8 18 Oeste 36 Oeste 0 -- -- 48
2018-11-30 01:00:00 7.9 24 Oeste 29 Oeste 0 -- -- 53
2018-11-30 00:00:00 8.2 23 Oeste 26 Oeste 0 -- -- 57
2018-11-29 23:00:00 8.6 15 Oeste 26 Oeste 0 -- -- 57
2018-11-29 22:00:00 9.2 13 Oeste 18 Oeste 0 -- -- 56
2018-11-29 21:00:00 8.4 18 Oeste 21 Oeste 0 -- -- 53
2018-11-29 20:00:00 11 0 Calma 9 Sudeste 0 -- -- 46
2018-11-29 19:00:00 11 5 Sudeste 12 Sur 0 -- -- 52
2018-11-29 18:00:00 11 6 Sur 10 Sur 0 -- -- 59
2018-11-29 17:00:00 11.7 4 Norte 10 Nordeste 0 -- -- 34
2018-11-29 16:00:00 11.4 4 Este 9 Este 0 -- -- 58
2018-11-29 15:00:00 11.7 3 Nordeste 7 Este 0 -- -- 58
2018-11-29 14:00:00 10.3 5 Este 15 Nordeste 0 -- -- 62
2018-11-29 13:00:00 10.8 8 Nordeste 16 Este 0 -- -- 54
2018-11-29 12:00:00 9.9 8 Este 14 Este 0 -- -- 52
2018-11-29 11:00:00 10 8 Norte 18 Sudoeste 0 -- -- 43
2018-11-29 10:00:00 7.4 11 Sudoeste 15 Oeste 0 -- -- 47
2018-11-29 09:00:00 7.6 11 Oeste 21 Oeste 0 -- -- 40
2018-11-29 08:00:00 7 12 Oeste 14 Oeste 0 -- -- 43
2018-11-29 07:00:00 6.8 10 Sudoeste 20 Oeste 0 -- -- 42
2018-11-29 06:00:00 6.2 11 Oeste 19 Oeste 0 -- -- 47
2018-11-29 05:00:00 6.1 14 Oeste 16 Oeste 0 -- -- 52
2018-11-29 04:00:00 8.6 4 Sudoeste 10 Oeste 0 -- -- 40
2018-11-29 03:00:00 8.7 6 Oeste 15 Oeste 0 -- -- 39
2018-11-29 02:00:00 8.4 11 Oeste 16 Oeste 0 -- -- 44
2018-11-29 01:00:00 9.1 11 Oeste 17 Oeste 0 -- -- 42
2018-11-29 00:00:00 9.5 14 Oeste 22 Oeste 0 -- -- 43
2018-11-28 23:00:00 10 15 Oeste 17 Oeste 0 -- -- 41
2018-11-28 22:00:00 9.6 14 Sudoeste 20 Sudoeste 0 -- -- 42
2018-11-28 21:00:00 10.5 10 Sudoeste 14 Sudoeste 0 -- -- 47
2018-11-28 14:00:00 -- -- -- -- -- -- -- -- --
2018-11-28 13:00:00 14.6 24 Oeste 33 Oeste 0 -- -- 35
2018-11-28 12:00:00 13 20 Oeste 28 Oeste 0 -- -- 42
2018-11-28 11:00:00 11.6 22 Oeste 29 Oeste 0 -- -- 42
2018-11-28 10:00:00 9.6 22 Oeste 30 Oeste 0 -- -- 49
2018-11-28 09:00:00 8.3 27 Oeste 36 Oeste 0 -- -- 53
2018-11-28 08:00:00 7.5 26 Oeste 31 Oeste 0 -- -- 51
2018-11-28 07:00:00 7.2 19 Sudoeste 24 Sudoeste 0 -- -- 52
2018-11-28 06:00:00 7.1 20 Oeste 25 Oeste 0 -- -- 58
2018-11-28 05:00:00 6.8 23 Oeste 36 Oeste 0 -- -- 63
2018-11-28 04:00:00 7.6 28 Oeste 39 Oeste 0 -- -- 59
2018-11-28 03:00:00 7.4 35 Oeste 45 Oeste 0 -- -- 64
2018-11-28 02:00:00 6.9 32 Oeste 35 Oeste 0 -- -- 66
2018-11-28 01:00:00 7.2 30 Oeste 38 Oeste 0 -- -- 65
2018-11-28 00:00:00 7 28 Oeste 39 Oeste 0 -- -- 67
2018-11-27 23:00:00 7.3 27 Oeste 35 Oeste 0 -- -- 67
2018-11-27 22:00:00 8.3 28 Oeste 36 Oeste 0 -- -- 64
2018-11-27 21:00:00 7.8 25 Oeste 31 Oeste 0 -- -- 66
2018-11-27 20:00:00 7.7 26 Oeste 30 Oeste 0 -- -- 65
2018-11-27 19:00:00 9 24 Oeste 30 Oeste 0 -- -- 57
2018-11-27 18:00:00 9.5 25 Oeste 34 Oeste 0 -- -- 55
2018-11-27 17:00:00 11.2 24 Oeste 39 Oeste 0 -- -- 52
2018-11-27 16:00:00 12.6 28 Oeste 43 Oeste 0 -- -- 47
2018-11-27 15:00:00 12.6 31 Oeste 42 Oeste 0 -- -- 48
2018-11-27 14:00:00 12 33 Oeste 46 Oeste 0 -- -- 49
2018-11-27 13:00:00 10.7 37 Oeste 53 Oeste 0 -- -- 53
2018-11-27 12:00:00 9.5 43 Oeste 58 Oeste 0 -- -- 62
2018-11-27 11:00:00 7.7 46 Oeste 59 Oeste 0 -- -- 71
2018-11-27 10:00:00 6.3 36 Oeste 47 Oeste 0 -- -- 77
2018-11-27 09:00:00 5 37 Oeste 47 Oeste 0 -- -- 82
2018-11-27 08:00:00 4.3 38 Oeste 51 Oeste 0 -- -- 86
2018-11-27 07:00:00 4.8 43 Oeste 50 Oeste 0 -- -- 83
2018-11-27 06:00:00 4.8 40 Oeste 50 Oeste 0 -- -- 84
2018-11-27 05:00:00 4.7 35 Oeste 46 Oeste 0 -- -- 85
2018-11-27 04:00:00 5.2 33 Oeste 43 Oeste 0 -- -- 82
2018-11-27 03:00:00 5.2 30 Oeste 43 Oeste 0 -- -- 83
2018-11-27 02:00:00 6.1 30 Oeste 60 Noroeste 0 -- -- 78
2018-11-27 01:00:00 6.3 35 Oeste 71 Noroeste 0 -- -- 77
2018-11-27 00:00:00 6.4 36 Noroeste 76 Oeste 0 -- -- 76
2018-11-26 23:00:00 6.6 51 Noroeste 78 Noroeste 0 -- -- 73
2018-11-26 22:00:00 6.8 44 Noroeste 75 Noroeste 0 -- -- 71
2018-11-26 21:00:00 6.6 44 Oeste 74 Oeste 0 -- -- 73
2018-11-26 20:00:00 6.9 47 Noroeste 80 Oeste 0 -- -- 71
2018-11-26 19:00:00 7.5 41 Noroeste 68 Noroeste 0 -- -- 71
2018-11-26 18:00:00 7.6 41 Oeste 64 Noroeste 0 -- -- 73
2018-11-26 17:00:00 8.3 48 Noroeste 65 Oeste 0 -- -- 69
2018-11-26 16:00:00 8.7 54 Noroeste 76 Oeste 0 -- -- 69
2018-11-26 15:00:00 8.3 42 Noroeste 71 Noroeste 0 -- -- 70
2018-11-26 14:00:00 8.2 44 Noroeste 71 Noroeste 0 -- -- 72
2018-11-26 13:00:00 7.6 47 Oeste 71 Noroeste 0 -- -- 77
2018-11-26 12:00:00 6.3 45 Oeste 69 Oeste 0 -- -- 86
2018-11-26 11:00:00 4.8 48 Oeste 64 Oeste 0 -- -- 92
2018-11-26 10:00:00 4.2 41 Oeste 76 Oeste 0.6 -- -- 95
2018-11-26 09:00:00 5.2 69 Oeste 93 Oeste 0 -- -- 85
2018-11-26 08:00:00 6.2 56 Oeste 80 Oeste 0 -- -- 81
2018-11-26 07:00:00 6.1 33 Oeste 49 Oeste 0.6 -- -- 99
2018-11-26 06:00:00 5.9 19 Noroeste 27 Noroeste 0.2 -- -- 97
2018-11-26 05:00:00 6.9 3 Norte 14 Oeste 0.2 -- -- 98
2018-11-26 04:00:00 6.7 6 Sur 9 Sur 0 -- -- 97
2018-11-26 03:00:00 7 2 Sur 14 Sur 0.2 -- -- 97
2018-11-26 02:00:00 6.8 10 Sur 15 Sur 1.8 -- -- 97
2018-11-26 01:00:00 6.4 9 Sudoeste 15 Sudoeste 2.6 -- -- 97
2018-11-26 00:00:00 5.8 11 Sudoeste 13 Sur 0.2 -- -- 94
2018-11-25 23:00:00 6.1 0 Calma 6 Sur 0 -- -- 92
2018-11-25 22:00:00 6.3 0 Calma 7 Este 0 -- -- 91
2018-11-25 21:00:00 6.3 3 Sudeste 9 Sur 0 -- -- 93
2018-11-25 20:00:00 6.2 7 Sur 9 Sur 0 -- -- 92
2018-11-25 19:00:00 6.5 5 Noroeste 10 Noroeste 0 -- -- 91
2018-11-25 18:00:00 6.8 7 Norte 10 Norte 0 -- -- 88
2018-11-25 17:00:00 8.6 5 Noroeste 19 Oeste 0 -- -- 80
2018-11-25 16:00:00 8.4 12 Oeste 22 Oeste 0 -- -- 83
2018-11-25 15:00:00 8 9 Noroeste 28 Oeste 0 -- -- 84
2018-11-25 14:00:00 7.5 24 Noroeste 37 Oeste 0.2 -- -- 94
2018-11-25 13:00:00 6.8 26 Noroeste 47 Noroeste 0 -- -- 96
2018-11-25 12:00:00 6.9 37 Noroeste 58 Oeste 0 -- -- 93
2018-11-25 11:00:00 11.2 45 Oeste 54 Oeste 0 -- -- 76
2018-11-25 10:00:00 10.5 41 Oeste 56 Oeste 0.2 -- -- 75
2018-11-25 09:00:00 8.1 17 Oeste 26 Oeste 0 -- -- 78
2018-11-25 08:00:00 7.9 9 Noroeste 19 Sur 0 -- -- 78
2018-11-25 07:00:00 5.1 10 Sudoeste 14 Sudoeste 0 -- -- 81
2018-11-25 06:00:00 6.8 8 Sudeste 17 Este 0.2 -- -- 73
2018-11-25 05:00:00 7 4 Sudeste 10 Sudoeste 0.2 -- -- 71
2018-11-25 04:00:00 6.2 3 Nordeste 14 Sur 0 -- -- 68
2018-11-25 03:00:00 5.6 11 Sur 17 Sur 0 -- -- 70
2018-11-25 02:00:00 5.7 11 Sur 16 Sudoeste 0 -- -- 69
2018-11-25 01:00:00 5.2 14 Sur 19 Sur 0 -- -- 72
2018-11-25 00:00:00 5.5 15 Sur 22 Sudoeste 0 -- -- 72
2018-11-24 23:00:00 4.1 11 Oeste 25 Oeste 0 -- -- 82
2018-11-24 22:00:00 5.3 18 Oeste 34 Oeste 0 -- -- 77
2018-11-24 21:00:00 6.4 25 Oeste 30 Oeste 0 -- -- 72
2018-11-24 20:00:00 6.6 21 Oeste 26 Oeste 0 -- -- 74
2018-11-24 19:00:00 7.2 10 Sudoeste 13 Sudoeste 0 -- -- 80
2018-11-24 18:00:00 8.3 5 Sudeste 12 Este 0 -- -- 71
2018-11-24 17:00:00 9 8 Este 15 Nordeste 0 -- -- 70
2018-11-24 16:00:00 10.3 10 Norte 23 Oeste 0 -- -- 62
2018-11-24 15:00:00 11.8 17 Oeste 25 Oeste 0 -- -- 52
2018-11-24 14:00:00 11.5 8 Oeste 23 Oeste 0 -- -- 54
2018-11-24 13:00:00 10.7 11 Oeste 19 Oeste 0 -- -- 57
2018-11-24 12:00:00 9.8 12 Oeste 19 Oeste 0 -- -- 62
2018-11-24 11:00:00 8.5 13 Sudoeste 20 Sudoeste 0 -- -- 63
2018-11-24 10:00:00 6.6 12 Sudoeste 22 Sudoeste 0 -- -- 73
2018-11-24 09:00:00 4.3 15 Sudoeste 33 Sur 0 -- -- 78
2018-11-24 08:00:00 3.7 22 Sudoeste 30 Sudoeste 0 -- -- 79
2018-11-24 07:00:00 4.3 24 Oeste 34 Sudoeste 0 -- -- 76
2018-11-24 06:00:00 4.7 26 Oeste 33 Oeste 0 -- -- 74
2018-11-24 05:00:00 4.9 28 Oeste 37 Sudoeste 0 -- -- 74
2018-11-24 04:00:00 5 28 Oeste 37 Oeste 0 -- -- 75
2018-11-24 03:00:00 5.8 35 Oeste 44 Oeste 0 -- -- 72
2018-11-24 02:00:00 4.8 32 Oeste 39 Oeste 0 -- -- 77
2018-11-24 01:00:00 5.5 25 Oeste 35 Sudoeste 0 -- -- 75
2018-11-24 00:00:00 5.5 20 Oeste 28 Oeste 0 -- -- 79
2018-11-23 23:00:00 5.6 27 Sudoeste 31 Sudoeste 0 -- -- 80
2018-11-23 22:00:00 4.8 23 Oeste 27 Oeste 0 -- -- 85
2018-11-23 21:00:00 5.4 20 Oeste 23 Oeste 0 -- -- 85
2018-11-23 20:00:00 6.4 16 Oeste 18 Oeste 0 -- -- 81
2018-11-23 19:00:00 7.1 13 Noroeste 15 Oeste 0 -- -- 78
2018-11-23 18:00:00 7.7 5 Oeste 16 Noroeste 0 -- -- 76
2018-11-23 17:00:00 9.2 12 Noroeste 27 Noroeste 0 -- -- 71
2018-11-23 16:00:00 9.8 17 Noroeste 24 Oeste 0 -- -- 75
2018-11-23 15:00:00 8.4 20 Oeste 27 Oeste 0 -- -- 79
2018-11-23 14:00:00 8.1 25 Oeste 38 Oeste 0 -- -- 82
2018-11-23 13:00:00 7.8 26 Oeste 36 Oeste 0 -- -- 84
2018-11-23 12:00:00 6.8 26 Oeste 36 Oeste 0 -- -- 92
2018-11-23 11:00:00 6.5 22 Oeste 32 Oeste 0 -- -- 96
2018-11-23 10:00:00 6.6 7 Oeste 14 Oeste 0 -- -- 94
2018-11-23 09:00:00 7.3 3 Oeste 9 Sur 0 -- -- 89
2018-11-23 08:00:00 7.7 7 Sur 17 Sur 0 -- -- 84
2018-11-23 07:00:00 6.6 11 Sudoeste 14 Oeste 0 -- -- 92
2018-11-23 06:00:00 6.2 11 Oeste 15 Oeste 0.2 -- -- 94
2018-11-23 05:00:00 6.5 12 Oeste 17 Sudoeste 1.2 -- -- 91
2018-11-23 04:00:00 7.6 10 Sur 19 Sudeste 0.4 -- -- 81
2018-11-23 03:00:00 8.4 6 Sur 16 Sudeste 0 -- -- 73
2018-11-23 02:00:00 8.7 11 Sur 13 Sudeste 0 -- -- 70
2018-11-23 01:00:00 8.1 10 Sur 14 Sur 0 -- -- 73
2018-11-23 00:00:00 8 10 Sudoeste 15 Sur 0 -- -- 75
2018-11-22 23:00:00 7.8 13 Sur 16 Sur 0 -- -- 81
2018-11-22 22:00:00 8.1 13 Sur 15 Sur 0 -- -- 81
2018-11-22 21:00:00 7.6 8 Sudoeste 10 Sudoeste 0 -- -- 86
2018-11-22 20:00:00 8.3 8 Sur 13 Este 0 -- -- 81
2018-11-22 19:00:00 8.7 10 Este 21 Este 0 -- -- 76
2018-11-22 18:00:00 8.7 18 Este 21 Este 0 -- -- 79
2018-11-22 17:00:00 9 10 Este 16 Este 0 -- -- 81
2018-11-22 16:00:00 9.8 12 Este 18 Este 0 -- -- 73
2018-11-22 15:00:00 10.3 14 Este 18 Nordeste 0 -- -- 69
2018-11-22 14:00:00 10.6 12 Este 17 Este 0 -- -- 59
2018-11-22 13:00:00 10.6 9 Este 18 Este 0 -- -- 59
2018-11-22 12:00:00 10.7 6 Sur 16 Sur 0 -- -- 68
2018-11-22 11:00:00 8.5 6 Oeste 13 Sudoeste 0 -- -- 74
2018-11-22 10:00:00 7.3 8 Sudoeste 13 Sudoeste 0 -- -- 78
2018-11-22 09:00:00 6.1 10 Oeste 13 Oeste 0 -- -- 81
2018-11-22 08:00:00 5.8 10 Oeste 17 Sudoeste 0 -- -- 81
2018-11-22 07:00:00 6.6 10 Sudoeste 15 Sudoeste 0 -- -- 77
2018-11-22 06:00:00 5.8 13 Oeste 19 Oeste 0 -- -- 82
2018-11-22 05:00:00 4.9 18 Oeste 23 Oeste 0 -- -- 86
2018-11-22 04:00:00 5.9 16 Oeste 20 Oeste 0 -- -- 81
2018-11-22 03:00:00 6.1 13 Oeste 20 Sudoeste 0 -- -- 79
2018-11-22 02:00:00 6.5 12 Sudoeste 18 Sudoeste 0 -- -- 77
2018-11-22 01:00:00 6.6 8 Sudoeste 13 Sudoeste 0 -- -- 75
2018-11-22 00:00:00 7.1 9 Sudoeste 14 Sudoeste 0 -- -- 74
2018-11-21 23:00:00 7.2 9 Sudoeste 18 Sudoeste 0 -- -- 74
2018-11-21 22:00:00 6.7 14 Sudoeste 21 Sudoeste 0 -- -- 77
2018-11-21 21:00:00 7.3 19 Sudoeste 24 Sudoeste 0 -- -- 78
2018-11-21 20:00:00 7.6 22 Sudoeste 26 Sudoeste 0 -- -- 78
2018-11-21 19:00:00 8.1 19 Sudoeste 26 Sudoeste 0 -- -- 77
2018-11-21 18:00:00 9.2 19 Sudoeste 30 Sudoeste 0 -- -- 73
2018-11-21 17:00:00 10.8 27 Oeste 40 Oeste 0 -- -- 68
2018-11-21 16:00:00 12.2 30 Oeste 38 Oeste 0 -- -- 66
2018-11-21 15:00:00 13.1 22 Oeste 35 Sudoeste 0 -- -- 56
2018-11-21 14:00:00 12.4 21 Sudoeste 28 Oeste 0 -- -- 57
2018-11-21 13:00:00 11 3 Oeste 25 Oeste 0 -- -- 66
2018-11-21 12:00:00 10.3 18 Sudoeste 53 Oeste 0 -- -- 66
2018-11-21 11:00:00 8.7 37 Sudoeste 45 Sudoeste 0 -- -- 74
2018-11-21 10:00:00 8.5 38 Sudoeste 46 Sudoeste 0 -- -- 72
2018-11-21 09:00:00 8.2 37 Sudoeste 45 Sudoeste 0 -- -- 72
2018-11-21 08:00:00 6.7 14 Sur 26 Sudoeste 0 -- -- 78
2018-11-21 07:00:00 7.1 13 Sudoeste 21 Sudoeste 0 -- -- 78
2018-11-21 06:00:00 6.4 14 Sudoeste 25 Sudoeste 0 -- -- 84
2018-11-21 05:00:00 6.5 22 Sudoeste 32 Sudoeste 0 -- -- 82
2018-11-21 04:00:00 6.5 25 Sudoeste 30 Sudoeste 0 -- -- 81
2018-11-21 03:00:00 6.1 17 Sudoeste 36 Sudoeste 0 -- -- 82
2018-11-21 02:00:00 7.6 36 Sudoeste 42 Sudoeste 0 -- -- 77
2018-11-21 01:00:00 7.5 27 Oeste 41 Sudoeste 0 -- -- 78
2018-11-21 00:00:00 7 27 Oeste 37 Oeste 0 -- -- 81
2018-11-20 23:00:00 7.2 25 Oeste 41 Oeste 0 -- -- 81
2018-11-20 22:00:00 7.5 35 Oeste 42 Oeste 0 -- -- 80
2018-11-20 21:00:00 7.7 27 Sudoeste 39 Sudoeste 0 -- -- 78
2018-11-20 20:00:00 6.5 25 Sudoeste 35 Sudoeste 0 -- -- 85
2018-11-20 19:00:00 8.1 29 Oeste 40 Oeste 0 -- -- 77
2018-11-20 18:00:00 8 26 Oeste 47 Sudoeste 0 -- -- 80
2018-11-20 17:00:00 7.7 31 Sudoeste 40 Oeste 0.4 -- -- 84
2018-11-20 16:00:00 7.4 27 Noroeste 64 Noroeste 1.8 -- -- 91
2018-11-20 15:00:00 11.9 13 Oeste 46 Oeste 0 -- -- 70
2018-11-20 14:00:00 12.8 25 Sudoeste 39 Oeste 0 -- -- 63
2018-11-20 13:00:00 11.9 30 Sudoeste 43 Sudoeste 0 -- -- 66
2018-11-20 12:00:00 11.4 29 Oeste 40 Sudoeste 0.2 -- -- 70
2018-11-20 11:00:00 7.9 6 Este 13 Este 0 -- -- 96
2018-11-20 10:00:00 8.5 4 Sur 11 Sudoeste 0 -- -- 90
2018-11-20 09:00:00 8.1 0 Calma 6 Este 0 -- -- 91
2018-11-20 08:00:00 8 6 Oeste 19 Sudoeste 0 -- -- 88
2018-11-20 07:00:00 8 16 Sudoeste 24 Sudoeste 0 -- -- 87
2018-11-20 06:00:00 7.8 15 Oeste 24 Sudoeste 0 -- -- 88
2018-11-20 05:00:00 7.9 17 Oeste 32 Oeste 0.2 -- -- 87
2018-11-20 04:00:00 7.7 20 Oeste 30 Sudoeste 0 -- -- 87
2018-11-20 03:00:00 7.7 21 Oeste 26 Oeste 0 -- -- 86
2018-11-20 02:00:00 7.4 20 Oeste 28 Sudoeste 0 -- -- 88
2018-11-20 01:00:00 7.7 22 Oeste 29 Oeste 0 -- -- 89
2018-11-20 00:00:00 6.6 14 Sudoeste 18 Sudoeste 0 -- -- 92
2018-11-19 23:00:00 7 15 Sudoeste 24 Oeste 0 -- -- 91
2018-11-19 22:00:00 7.4 17 Oeste 22 Oeste 0 -- -- 97
2018-11-19 21:00:00 7.4 19 Oeste 22 Oeste 0 -- -- 97
2018-11-19 20:00:00 7.8 17 Oeste 20 Oeste 0 -- -- 96
2018-11-19 19:00:00 8 12 Oeste 16 Sudoeste 0 -- -- 98
2018-11-19 18:00:00 8.1 13 Oeste 16 Oeste 0 -- -- 100
2018-11-19 17:00:00 8.2 14 Oeste 17 Sudoeste 0 -- -- 100
2018-11-19 16:00:00 7.9 8 Oeste 12 Oeste 0 -- -- 100
2018-11-19 15:00:00 7.7 5 Noroeste 11 Norte 0 -- -- 100
2018-11-19 14:00:00 7.8 3 Norte 12 Norte 0 -- -- 100
2018-11-19 13:00:00 7.4 9 Norte 18 Nordeste 0 -- -- 100
2018-11-19 12:00:00 7.4 13 Nordeste 17 Nordeste 0 -- -- 100
2018-11-19 11:00:00 7.1 6 Nordeste 13 Norte 0 -- -- 100
2018-11-19 10:00:00 7.2 7 Norte 19 Nordeste 0 -- -- 100
2018-11-19 09:00:00 7 10 Norte 21 Norte 0 -- -- 100
2018-11-19 08:00:00 7 12 Nordeste 23 Nordeste 0 -- -- 100
2018-11-19 07:00:00 7.3 15 Nordeste 22 Este 0.4 -- -- 100
2018-11-19 06:00:00 7.2 18 Nordeste 26 Nordeste 0.4 -- -- 100
2018-11-19 05:00:00 7.3 9 Nordeste 16 Nordeste 0.6 -- -- 100
2018-11-19 04:00:00 7.5 10 Nordeste 18 Nordeste 0 -- -- 100
2018-11-19 03:00:00 7.5 14 Nordeste 20 Este 0.4 -- -- 100
2018-11-19 02:00:00 7.7 12 Este 19 Este 0.8 -- -- 100
2018-11-19 01:00:00 7.6 14 Este 19 Este 0.4 -- -- 100
2018-11-19 00:00:00 7.5 16 Este 30 Este 0.2 -- -- 100
2018-11-18 23:00:00 7.3 24 Este 36 Este 0 -- -- 100
2018-11-18 22:00:00 7.4 26 Este 36 Este 0 -- -- 100
2018-11-18 21:00:00 7.5 26 Este 33 Este 0 -- -- 100
2018-11-18 20:00:00 7.5 18 Este 29 Este 0 -- -- 100
2018-11-18 19:00:00 7.6 26 Este 33 Este 0.2 -- -- 100
2018-11-18 18:00:00 7.7 24 Este 35 Este 0.2 -- -- 99
2018-11-18 17:00:00 7.9 27 Este 37 Este 0 -- -- 98
2018-11-18 16:00:00 8.3 23 Este 32 Este 0 -- -- 99
2018-11-18 15:00:00 8.3 28 Este 34 Este 0 -- -- 99
2018-11-18 14:00:00 8.3 30 Este 37 Este 0 -- -- 99
2018-11-18 13:00:00 8.1 27 Este 35 Este 0 -- -- 100
2018-11-18 12:00:00 8.2 25 Este 30 Este 0 -- -- 100
2018-11-18 11:00:00 8.1 21 Este 27 Este 0.4 -- -- 100
2018-11-18 10:00:00 8.2 14 Este 19 Este 0.6 -- -- 99
2018-11-18 09:00:00 8.4 13 Este 18 Este 0.4 -- -- 99
2018-11-18 08:00:00 8.4 14 Este 18 Este 0 -- -- 98
2018-11-18 07:00:00 9.3 14 Sudeste 27 Sudeste 0.6 -- -- 93
2018-11-18 06:00:00 9.2 13 Sudeste 23 Sudeste 1 -- -- 94
2018-11-18 05:00:00 9.5 12 Sudeste 19 Sudeste 0.4 -- -- 95
2018-11-18 04:00:00 9.4 4 Oeste 14 Sudeste 0.2 -- -- 95
2018-11-18 03:00:00 9.5 4 Sudeste 8 Sudeste 0 -- -- 96
2018-11-18 02:00:00 9.4 3 Sudeste 13 Sur 0 -- -- 96
2018-11-18 01:00:00 9.9 12 Sur 18 Sur 0.2 -- -- 94
2018-11-18 00:00:00 10.1 10 Sur 16 Sur 0.6 -- -- 93
2018-11-17 23:00:00 10.1 5 Este 10 Nordeste 0 -- -- 95
2018-11-17 22:00:00 10.6 7 Sur 14 Sur 0 -- -- 94
2018-11-17 21:00:00 10.6 7 Este 12 Este 0 -- -- 98
2018-11-17 20:00:00 10.8 4 Este 12 Este 0 -- -- 98
2018-11-17 19:00:00 11 8 Este 13 Este 0 -- -- 98
2018-11-17 18:00:00 11.1 11 Este 19 Este 0 -- -- 96
2018-11-17 17:00:00 11.5 14 Este 21 Nordeste 0 -- -- 93
2018-11-17 16:00:00 11.6 18 Nordeste 24 Nordeste 0 -- -- 93
2018-11-17 15:00:00 12.7 15 Nordeste 21 Este 0 -- -- 82
2018-11-17 14:00:00 12.1 11 Este 19 Nordeste 0 -- -- 88
2018-11-17 13:00:00 11.8 14 Este 19 Nordeste 0 -- -- 96
2018-11-17 12:00:00 10.2 10 Este 18 Este 0 -- -- 99
2018-11-17 11:00:00 10.2 6 Nordeste 11 Este 0 -- -- 98
2018-11-17 10:00:00 9.4 7 Este 10 Este 0 -- -- 98
2018-11-17 09:00:00 9.9 5 Oeste 6 Oeste 0 -- -- 93
2018-11-17 08:00:00 10.3 4 Sudeste 7 Sudoeste 0 -- -- 93
2018-11-17 07:00:00 10.5 4 Sur 6 Sudeste 0 -- -- 90
2018-11-17 06:00:00 11 3 Sudeste 14 Sudeste 0 -- -- 89
2018-11-17 05:00:00 10.9 8 Sudeste 15 Sur 0.2 -- -- 91
2018-11-17 04:00:00 10.3 10 Sur 22 Sudeste 0 -- -- 93
2018-11-17 03:00:00 11 13 Sudeste 18 Sudeste 0 -- -- 89
2018-11-17 02:00:00 11.5 10 Sur 22 Sudeste 0 -- -- 87
2018-11-17 01:00:00 11 9 Sur 18 Sur 0 -- -- 89
2018-11-17 00:00:00 11.1 9 Sudeste 18 Sur 0 -- -- 87
2018-11-16 23:00:00 10.6 7 Sur 15 Sudoeste 0 -- -- 90
2018-11-16 22:00:00 10.6 13 Sur 16 Sur 0 -- -- 92
2018-11-16 21:00:00 11.4 13 Sur 19 Sudeste 0 -- -- 88
2018-11-16 20:00:00 12 13 Sudeste 19 Sudeste 0 -- -- 86
2018-11-16 19:00:00 12 9 Sudeste 16 Este 0 -- -- 96
2018-11-16 18:00:00 12.3 14 Este 22 Este 0 -- -- 97
2018-11-16 17:00:00 13.2 17 Este 22 Este 0 -- -- 94
2018-11-16 16:00:00 13.2 17 Este 24 Este 0 -- -- 92
2018-11-16 15:00:00 13.2 17 Este 23 Este 0 -- -- 93
2018-11-16 14:00:00 13.1 11 Este 22 Este 0 -- -- 99
2018-11-16 13:00:00 11.8 14 Este 22 Este 0 -- -- 100
2018-11-16 12:00:00 11.1 14 Este 19 Este 0 -- -- 100
2018-11-16 11:00:00 11 10 Este 16 Este 0 -- -- 100
2018-11-16 10:00:00 10.8 4 Este 12 Nordeste 0 -- -- 100
2018-11-16 09:00:00 10.7 2 Este 8 Este 0 -- -- 100
2018-11-16 08:00:00 10.2 3 Sudeste 12 Sur 0 -- -- 100
2018-11-16 07:00:00 10.3 8 Sudeste 12 Sudeste 0 -- -- 100
2018-11-16 06:00:00 10.3 7 Este 9 Este 0 -- -- 100
2018-11-16 05:00:00 10.3 5 Sudoeste 7 Sudoeste 0 -- -- 99
2018-11-16 04:00:00 10.4 4 Sudeste 15 Sudoeste 0 -- -- 99
2018-11-16 03:00:00 10.4 3 Este 11 Nordeste 0 -- -- 99
2018-11-16 02:00:00 10.3 8 Nordeste 11 Nordeste 0 -- -- 99
2018-11-16 01:00:00 10.4 4 Nordeste 9 Este 0 -- -- 98
2018-11-16 00:00:00 10.5 4 Nordeste 10 Oeste 0 -- -- 98
2018-11-15 23:00:00 10.6 7 Oeste 9 Oeste 0 -- -- 98
2018-11-15 22:00:00 10.9 5 Sur 16 Sudeste 0 -- -- 98
2018-11-15 21:00:00 10.7 8 Sur 14 Sudeste 0 -- -- 98
2018-11-15 20:00:00 10.6 2 Este 13 Este 0 -- -- 98
2018-11-15 19:00:00 10.5 3 Sur 13 Este 0 -- -- 97
2018-11-15 18:00:00 10.8 6 Este 15 Este 0 -- -- 96
2018-11-15 17:00:00 11.3 12 Este 20 Nordeste 0 -- -- 95
2018-11-15 16:00:00 11.6 17 Este 21 Este 0 -- -- 94
2018-11-15 15:00:00 12.1 15 Este 19 Este 0 -- -- 96
2018-11-15 14:00:00 11.4 11 Este 16 Este 0 -- -- 99
2018-11-15 13:00:00 11.4 13 Este 17 Este 0 -- -- 99
2018-11-15 12:00:00 11.3 2 Sudeste 10 Este 0.4 -- -- 99
2018-11-15 11:00:00 11 8 Este 12 Este 0.8 -- -- 99
2018-11-15 10:00:00 11.2 6 Este 7 Nordeste 0 -- -- 99
2018-11-15 09:00:00 11.2 4 Este 9 Este 0 -- -- 98
2018-11-15 08:00:00 11.2 3 Sudeste 10 Este 0 -- -- 98
2018-11-15 07:00:00 10.9 8 Este 13 Nordeste 0 -- -- 97
2018-11-15 06:00:00 11 5 Norte 13 Nordeste 0 -- -- 93
2018-11-15 05:00:00 11.5 4 Nordeste 13 Este 0 -- -- 88
2018-11-15 04:00:00 11.6 14 Este 18 Este 0 -- -- 88
2018-11-15 03:00:00 11.1 12 Este 18 Sudeste 0 -- -- 89
2018-11-15 02:00:00 11.9 10 Sudeste 18 Sudeste 0 -- -- 85
2018-11-15 01:00:00 11.6 10 Este 17 Sudeste 0 -- -- 86
2018-11-15 00:00:00 12 12 Sudeste 24 Sudeste 0 -- -- 83
2018-11-14 23:00:00 12.1 13 Este 22 Este 0 -- -- 85
2018-11-14 22:00:00 11.8 8 Este 16 Sudeste 0 -- -- 90
2018-11-14 21:00:00 12.3 9 Nordeste 23 Sudeste 0 -- -- 88
2018-11-14 20:00:00 12.2 8 Sudeste 15 Este 0 -- -- 92
2018-11-14 19:00:00 12 9 Este 17 Este 0 -- -- 94
2018-11-14 18:00:00 12.6 15 Nordeste 21 Nordeste 0 -- -- 92
2018-11-14 17:00:00 13.3 17 Nordeste 22 Este 0 -- -- 93
2018-11-14 16:00:00 13.6 17 Este 26 Nordeste 0 -- -- 92
2018-11-14 15:00:00 13.4 20 Nordeste 25 Nordeste 0 -- -- 94
2018-11-14 14:00:00 12.7 14 Nordeste 21 Nordeste 0 -- -- 95
2018-11-14 13:00:00 12.5 13 Nordeste 19 Nordeste 0 -- -- 94
2018-11-14 12:00:00 13.5 14 Nordeste 19 Nordeste 0 -- -- 91
2018-11-14 11:00:00 12.5 8 Nordeste 11 Nordeste 0 -- -- 96
2018-11-14 10:00:00 12.5 6 Este 12 Este 0 -- -- 91
2018-11-14 09:00:00 12.3 8 Este 12 Este 0 -- -- 91
2018-11-14 08:00:00 11.6 5 Este 12 Este 0 -- -- 97
2018-11-14 07:00:00 11.5 8 Este 12 Este 0 -- -- 99
2018-11-14 06:00:00 11.2 6 Este 10 Este 0 -- -- 99
2018-11-14 05:00:00 11.1 5 Este 9 Este 0 -- -- 99
2018-11-14 04:00:00 10.8 4 Este 9 Sudeste 0 -- -- 98
2018-11-14 03:00:00 11.1 7 Este 10 Este 0 -- -- 98
2018-11-14 02:00:00 11 3 Sudeste 10 Nordeste 0 -- -- 97
2018-11-14 01:00:00 11.6 7 Este 12 Este 0 -- -- 96
2018-11-14 00:00:00 12.3 9 Este 18 Este 0 -- -- 90
2018-11-13 23:00:00 11.6 8 Este 16 Sudeste 0 -- -- 92
2018-11-13 22:00:00 11 7 Este 17 Sudeste 0 -- -- 93
2018-11-13 21:00:00 11.7 12 Sudeste 18 Este 0 -- -- 92
2018-11-13 20:00:00 11.5 9 Sudeste 18 Sudeste 0 -- -- 92
2018-11-13 19:00:00 11.2 11 Sudeste 17 Este 0 -- -- 97
2018-11-13 18:00:00 11.8 10 Este 13 Este 0 -- -- 94
2018-11-13 17:00:00 12.3 7 Este 10 Este 0 -- -- 91
2018-11-13 16:00:00 12.5 6 Nordeste 10 Este 0 -- -- 89
2018-11-13 15:00:00 12.5 6 Este 10 Este 0 -- -- 89
2018-11-13 14:00:00 12.1 5 Este 9 Este 0 -- -- 92
2018-11-13 13:00:00 11.4 6 Sudoeste 9 Oeste 0 -- -- 99
2018-11-13 12:00:00 10.5 7 Sur 9 Sur 0 -- -- 98
2018-11-13 11:00:00 10.6 0 Calma 5 Sudoeste 0 -- -- 98
2018-11-13 10:00:00 10.1 3 Sudoeste 10 Oeste 0 -- -- 98
2018-11-13 09:00:00 9.5 10 Oeste 19 Noroeste 0 -- -- 98
2018-11-13 08:00:00 8.9 13 Noroeste 26 Oeste 0 -- -- 95
2018-11-13 07:00:00 8.9 14 Oeste 18 Oeste 0 -- -- 92
2018-11-13 06:00:00 9 15 Oeste 18 Oeste 0 -- -- 92
2018-11-13 05:00:00 9.5 13 Oeste 19 Oeste 0 -- -- 92
2018-11-13 04:00:00 9.6 14 Oeste 22 Oeste 0 -- -- 96
2018-11-13 03:00:00 10 14 Oeste 18 Oeste 0 -- -- 96
2018-11-13 02:00:00 10.5 13 Oeste 15 Oeste 0 -- -- 94
2018-11-13 01:00:00 10.9 8 Oeste 13 Noroeste 0 -- -- 90
2018-11-13 00:00:00 12.4 3 Noroeste 16 Oeste 0 -- -- 86
2018-11-12 23:00:00 11.9 13 Oeste 18 Oeste 0 -- -- 89
2018-11-12 22:00:00 12 13 Oeste 18 Sudoeste 0 -- -- 84
2018-11-12 21:00:00 11.7 17 Sur 19 Sur 0 -- -- 87
2018-11-12 20:00:00 12.1 12 Sudoeste 14 Sur 0 -- -- 86
2018-11-12 19:00:00 13.2 12 Este 18 Este 0 -- -- 82
2018-11-12 18:00:00 13.1 11 Este 14 Este 0 -- -- 88
2018-11-12 17:00:00 14.4 15 Este 30 Este 0 -- -- 83
2018-11-12 16:00:00 15.4 23 Este 33 Este 0 -- -- 70
2018-11-12 15:00:00 15.7 25 Este 35 Este 0 -- -- 71
2018-11-12 14:00:00 15.8 22 Este 31 Este 0 -- -- 71
2018-11-12 13:00:00 16.1 17 Sudeste 35 Sur 0 -- -- 69
2018-11-12 12:00:00 14.7 24 Este 40 Este 0 -- -- 73
2018-11-12 11:00:00 14.4 18 Este 24 Este 0 -- -- 71
2018-11-12 10:00:00 13.7 4 Este 12 Oeste 0 -- -- 72
2018-11-12 09:00:00 11.5 8 Sudoeste 19 Sudoeste 0 -- -- 74
2018-11-12 08:00:00 9.9 17 Sudoeste 20 Sudoeste 0 -- -- 81
2018-11-12 07:00:00 9.7 13 Sur 21 Sudoeste 0 -- -- 85
2018-11-12 06:00:00 9.9 17 Sur 23 Sur 0 -- -- 85
2018-11-12 05:00:00 9.3 14 Sur 23 Sur 0 -- -- 90
2018-11-12 04:00:00 9.9 9 Sudoeste 12 Sur 0 -- -- 89
2018-11-12 03:00:00 10.8 4 Sudoeste 19 Sudeste 0 -- -- 86
2018-11-12 02:00:00 11.4 11 Sudeste 23 Sudeste 0 -- -- 84
2018-11-12 01:00:00 12.9 11 Sudeste 19 Sudeste 0 -- -- 79
2018-11-12 00:00:00 12.7 10 Sudeste 28 Sur 0 -- -- 82